PWSweather.com
Personal Weather Stations
Station Observations
EDGELEY
Edgeley, Nd, Edgeley, ND 58433

Edgeley, NdEdgeley, ND 58433

Lat: 46.3599246, Lon: -98.7144392

Elevation: 1575

Station Type: Davis/Vantage Pro

www.edgeleyweather.com

High Low Average
Temperature 74.5°F23.6°C 61.6°F16.4°C 68.0°F20.0°C
Dew Point 66.0°F18.9°C 60.2°F15.7°C 63.2°F17.3°C
Winds 119.0 mph 191.5 kmh Calm Calm 9.0 mph N14.5 kmh N
Wind Gusts 128.0 mph206.0 kmh -- 13.0 mph20.9 kmh
Humidity 97% 70% 85%
Pressure 29.99 in1015.6 mb 29.75 in1007.5 mb -
Precipitation 0.00 in0.0 mm - -
Hour Temp Dew Point Humidity Winds Wind Gusts Pressure Precip Precip Rate Daily Precip Total
12:00 AM 67.1°F19.5°C 65.9°F18.8°C 96% 128.0 mph N206.0 kmh N 128.0 mph206.0 kmh 29.78 in1008.5 mb 0.00 in0.0 mm 0.00 in0.0 mm 0.00 in0.0 mm
12:05 AM 67.1°F19.5°C 65.9°F18.8°C 96% 103.0 mph N165.8 kmh N 128.0 mph206.0 kmh 29.76 in1007.8 mb 0.00 in0.0 mm 0.00 in0.0 mm 0.00 in0.0 mm
12:10 AM 67.1°F19.5°C 65.9°F18.8°C 96% 2.0 mph N3.2 kmh N 128.0 mph206.0 kmh 29.77 in1008.1 mb 0.03 in0.8 mm 0.36 in9.1 mm 0.03 in0.8 mm
12:15 AM 67.0°F19.4°C 65.8°F18.8°C 96% 7.0 mph N11.3 kmh N 8.0 mph12.9 kmh 29.75 in1007.5 mb 0.03 in0.8 mm 0.00 in0.0 mm 0.03 in0.8 mm
12:20 AM 67.0°F19.4°C 65.8°F18.8°C 96% 6.0 mph N9.7 kmh N 96.0 mph154.5 kmh 29.75 in1007.5 mb 0.03 in0.8 mm 0.00 in0.0 mm 0.03 in0.8 mm
12:25 AM 67.0°F19.4°C 65.8°F18.8°C 96% 9.0 mph N14.5 kmh N 96.0 mph154.5 kmh 29.76 in1007.8 mb 0.03 in0.8 mm 0.00 in0.0 mm 0.03 in0.8 mm
12:30 AM 67.1°F19.5°C 65.9°F18.8°C 96% 14.0 mph N22.5 kmh N 15.0 mph24.1 kmh 29.77 in1008.1 mb 0.03 in0.8 mm 0.00 in0.0 mm 0.03 in0.8 mm
12:35 AM 67.1°F19.5°C 65.9°F18.8°C 96% 97.0 mph N156.1 kmh N 97.0 mph156.1 kmh 29.76 in1007.8 mb 0.03 in0.8 mm 0.00 in0.0 mm 0.03 in0.8 mm
12:40 AM 67.0°F19.4°C 65.8°F18.8°C 96% 37.0 mph N59.5 kmh N 97.0 mph156.1 kmh 29.75 in1007.5 mb 0.04 in1.0 mm 0.12 in3.0 mm 0.04 in1.0 mm
12:45 AM 66.9°F19.4°C 65.7°F18.7°C 96% 15.0 mph N24.1 kmh N 36.0 mph57.9 kmh 29.75 in1007.5 mb 0.04 in1.0 mm 0.00 in0.0 mm 0.04 in1.0 mm
12:50 AM 66.8°F19.3°C 65.6°F18.7°C 96% 105.0 mph N169.0 kmh N 107.0 mph172.2 kmh 29.76 in1007.8 mb 0.04 in1.0 mm 0.00 in0.0 mm 0.04 in1.0 mm
12:55 AM 66.8°F19.3°C 65.6°F18.7°C 96% 88.0 mph N141.6 kmh N 111.0 mph178.6 kmh 29.76 in1007.8 mb 0.04 in1.0 mm 0.00 in0.0 mm 0.04 in1.0 mm
01:00 AM 66.7°F19.3°C 65.5°F18.6°C 96% 103.0 mph N165.8 kmh N 111.0 mph178.6 kmh 29.75 in1007.5 mb 0.04 in1.0 mm 0.00 in0.0 mm 0.04 in1.0 mm
01:05 AM 66.6°F19.2°C 65.4°F18.6°C 96% 107.0 mph N172.2 kmh N 112.0 mph180.2 kmh 29.75 in1007.5 mb 0.04 in1.0 mm 0.00 in0.0 mm 0.04 in1.0 mm
01:10 AM 66.5°F19.2°C 65.3°F18.5°C 96% 29.0 mph N46.7 kmh N 114.0 mph183.5 kmh 29.75 in1007.5 mb 0.04 in1.0 mm 0.00 in0.0 mm 0.04 in1.0 mm
01:15 AM 66.4°F19.1°C 65.2°F18.4°C 96% 111.0 mph N178.6 kmh N 111.0 mph178.6 kmh 29.75 in1007.5 mb 0.01 in0.3 mm 0.00 in0.0 mm 0.04 in1.0 mm
01:20 AM 66.4°F19.1°C 65.2°F18.4°C 96% 105.0 mph N169.0 kmh N 115.0 mph185.1 kmh 29.76 in1007.8 mb 0.01 in0.3 mm 0.00 in0.0 mm 0.04 in1.0 mm
01:25 AM 66.4°F19.1°C 65.2°F18.4°C 96% 99.0 mph N159.3 kmh N 118.0 mph189.9 kmh 29.76 in1007.8 mb 0.01 in0.3 mm 0.00 in0.0 mm 0.04 in1.0 mm
01:30 AM 66.4°F19.1°C 65.2°F18.4°C 96% 119.0 mph N191.5 kmh N 127.0 mph204.4 kmh 29.77 in1008.1 mb 0.01 in0.3 mm 0.00 in0.0 mm 0.04 in1.0 mm
01:35 AM 66.5°F19.2°C 65.3°F18.5°C 96% 111.0 mph N178.6 kmh N 128.0 mph206.0 kmh 29.79 in1008.8 mb 0.01 in0.3 mm 0.00 in0.0 mm 0.04 in1.0 mm
01:40 AM 66.7°F19.3°C 65.8°F18.8°C 97% 101.0 mph N162.5 kmh N 128.0 mph206.0 kmh 29.80 in1009.1 mb 0.01 in0.3 mm 0.00 in0.0 mm 0.04 in1.0 mm
01:45 AM 66.8°F19.3°C 65.6°F18.7°C 96% 103.0 mph N165.8 kmh N 111.0 mph178.6 kmh 29.80 in1009.1 mb 0.00 in0.0 mm 0.00 in0.0 mm 0.04 in1.0 mm
01:50 AM 66.9°F19.4°C 65.7°F18.7°C 96% 47.0 mph N75.6 kmh N 128.0 mph206.0 kmh 29.81 in1009.5 mb 0.01 in0.3 mm 0.12 in3.0 mm 0.05 in1.3 mm
01:55 AM 67.0°F19.4°C 65.8°F18.8°C 96% 112.0 mph N180.2 kmh N 128.0 mph206.0 kmh 29.81 in1009.5 mb 0.03 in0.8 mm 0.24 in6.1 mm 0.07 in1.8 mm
02:00 AM 67.0°F19.4°C 65.8°F18.8°C 96% 107.0 mph N172.2 kmh N 110.0 mph177.0 kmh 29.79 in1008.8 mb 0.04 in1.0 mm 0.01 in0.3 mm 0.08 in2.0 mm
02:05 AM 67.0°F19.4°C 65.8°F18.8°C 96% 106.0 mph N170.6 kmh N 128.0 mph206.0 kmh 29.78 in1008.5 mb 0.05 in1.3 mm 0.12 in3.0 mm 0.09 in2.3 mm
02:10 AM 66.9°F19.4°C 65.7°F18.7°C 96% 114.0 mph N183.5 kmh N 128.0 mph206.0 kmh 29.80 in1009.1 mb 0.06 in1.5 mm 0.12 in3.0 mm 0.10 in2.5 mm
02:15 AM 66.9°F19.4°C 65.7°F18.7°C 96% 106.0 mph N170.6 kmh N 111.0 mph178.6 kmh 29.78 in1008.5 mb 0.07 in1.8 mm 0.12 in3.0 mm 0.11 in2.8 mm
02:20 AM 66.9°F19.4°C 66.0°F18.9°C 97% 112.0 mph N180.2 kmh N 116.0 mph186.7 kmh 29.75 in1007.5 mb 0.08 in2.0 mm 0.12 in3.0 mm 0.12 in3.0 mm
02:25 AM 66.9°F19.4°C 65.7°F18.7°C 96% 111.0 mph N178.6 kmh N 128.0 mph206.0 kmh 29.75 in1007.5 mb 0.09 in2.3 mm 0.12 in3.0 mm 0.13 in3.3 mm
02:30 AM 66.8°F19.3°C 65.6°F18.7°C 96% 110.0 mph N177.0 kmh N 114.0 mph183.5 kmh 29.75 in1007.5 mb 0.09 in2.3 mm 0.00 in0.0 mm 0.13 in3.3 mm
02:35 AM 66.7°F19.3°C 65.5°F18.6°C 96% 37.0 mph N59.5 kmh N 128.0 mph206.0 kmh 29.75 in1007.5 mb 0.10 in2.5 mm 0.12 in3.0 mm 0.14 in3.6 mm
02:40 AM 66.7°F19.3°C 65.8°F18.8°C 97% 5.0 mph N8.0 kmh N 128.0 mph206.0 kmh 29.76 in1007.8 mb 0.10 in2.5 mm 0.00 in0.0 mm 0.14 in3.6 mm
02:45 AM 66.7°F19.3°C 65.8°F18.8°C 97% 5.0 mph N8.0 kmh N 5.0 mph8.0 kmh 29.77 in1008.1 mb 0.10 in2.5 mm 0.00 in0.0 mm 0.14 in3.6 mm
02:50 AM 66.8°F19.3°C 65.9°F18.8°C 97% 4.0 mph N6.4 kmh N 7.0 mph11.3 kmh 29.77 in1008.1 mb 0.10 in2.5 mm 0.00 in0.0 mm 0.14 in3.6 mm
02:55 AM 66.8°F19.3°C 65.9°F18.8°C 97% 4.0 mph N6.4 kmh N 7.0 mph11.3 kmh 29.77 in1008.1 mb 0.10 in2.5 mm 0.00 in0.0 mm 0.14 in3.6 mm
03:00 AM 66.8°F19.3°C 65.9°F18.8°C 97% 5.0 mph N8.0 kmh N 5.0 mph8.0 kmh 29.77 in1008.1 mb 0.06 in1.5 mm 0.00 in0.0 mm 0.14 in3.6 mm
03:05 AM 66.8°F19.3°C 65.9°F18.8°C 97% 4.0 mph N6.4 kmh N 5.0 mph8.0 kmh 29.77 in1008.1 mb 0.06 in1.5 mm 0.00 in0.0 mm 0.14 in3.6 mm
03:10 AM 66.7°F19.3°C 65.8°F18.8°C 97% 2.0 mph N3.2 kmh N 6.0 mph9.7 kmh 29.77 in1008.1 mb 0.06 in1.5 mm 0.00 in0.0 mm 0.14 in3.6 mm
03:15 AM 66.7°F19.3°C 65.8°F18.8°C 97% 2.0 mph N3.2 kmh N 3.0 mph4.8 kmh 29.77 in1008.1 mb 0.03 in0.8 mm 0.00 in0.0 mm 0.14 in3.6 mm
03:20 AM 66.7°F19.3°C 65.8°F18.8°C 97% 3.0 mph N4.8 kmh N 6.0 mph9.7 kmh 29.77 in1008.1 mb 0.03 in0.8 mm 0.00 in0.0 mm 0.14 in3.6 mm
03:25 AM 66.6°F19.2°C 65.7°F18.7°C 97% 4.0 mph N6.4 kmh N 7.0 mph11.3 kmh 29.77 in1008.1 mb 0.03 in0.8 mm 0.00 in0.0 mm 0.14 in3.6 mm
03:30 AM 66.6°F19.2°C 65.7°F18.7°C 97% 1.0 mph N1.6 kmh N 3.0 mph4.8 kmh 29.77 in1008.1 mb 0.01 in0.3 mm 0.00 in0.0 mm 0.14 in3.6 mm
03:35 AM 66.6°F19.2°C 65.7°F18.7°C 97% 4.0 mph N6.4 kmh N 7.0 mph11.3 kmh 29.77 in1008.1 mb 0.01 in0.3 mm 0.00 in0.0 mm 0.14 in3.6 mm
03:40 AM 66.6°F19.2°C 65.7°F18.7°C 97% 6.0 mph N9.7 kmh N 7.0 mph11.3 kmh 29.77 in1008.1 mb 0.01 in0.3 mm 0.00 in0.0 mm 0.14 in3.6 mm
03:45 AM 66.7°F19.3°C 65.8°F18.8°C 97% 5.0 mph N8.0 kmh N 6.0 mph9.7 kmh 29.77 in1008.1 mb 0.00 in0.0 mm 0.00 in0.0 mm 0.14 in3.6 mm
03:50 AM 66.7°F19.3°C 65.8°F18.8°C 97% 1.0 mph N1.6 kmh N 8.0 mph12.9 kmh 29.78 in1008.5 mb 0.00 in0.0 mm 0.00 in0.0 mm 0.14 in3.6 mm
03:55 AM 66.8°F19.3°C 65.9°F18.8°C 97% 3.0 mph N4.8 kmh N 8.0 mph12.9 kmh 29.77 in1008.1 mb 0.00 in0.0 mm 0.00 in0.0 mm 0.14 in3.6 mm
04:00 AM 66.8°F19.3°C 65.9°F18.8°C 97% 3.0 mph N4.8 kmh N 3.0 mph4.8 kmh 29.77 in1008.1 mb 0.00 in0.0 mm 0.00 in0.0 mm 0.14 in3.6 mm
04:05 AM 66.9°F19.4°C 66.0°F18.9°C 97% 4.0 mph N6.4 kmh N 7.0 mph11.3 kmh 29.78 in1008.5 mb 0.00 in0.0 mm 0.00 in0.0 mm 0.14 in3.6 mm
04:10 AM 66.9°F19.4°C 66.0°F18.9°C 97% 2.0 mph N3.2 kmh N 8.0 mph12.9 kmh 29.78 in1008.5 mb 0.00 in0.0 mm 0.00 in0.0 mm 0.14 in3.6 mm
04:15 AM 66.5°F19.2°C 65.3°F18.5°C 96% 4.0 mph N6.4 kmh N 6.0 mph9.7 kmh 29.78 in1008.5 mb 0.00 in0.0 mm 0.00 in0.0 mm 0.14 in3.6 mm
04:20 AM 65.8°F18.8°C 64.6°F18.1°C 96% 3.0 mph N4.8 kmh N 12.0 mph19.3 kmh 29.78 in1008.5 mb 0.00 in0.0 mm 0.00 in0.0 mm 0.14 in3.6 mm
04:25 AM 65.3°F18.5°C 64.1°F17.8°C 96% 9.0 mph N14.5 kmh N 12.0 mph19.3 kmh 29.79 in1008.8 mb 0.00 in0.0 mm 0.00 in0.0 mm 0.14 in3.6 mm
04:30 AM 64.4°F18.0°C 62.9°F17.2°C 95% 6.0 mph N9.7 kmh N 8.0 mph12.9 kmh 29.79 in1008.8 mb 0.00 in0.0 mm 0.00 in0.0 mm 0.14 in3.6 mm
04:35 AM 63.8°F17.7°C 62.6°F17.0°C 96% 3.0 mph N4.8 kmh N 11.0 mph17.7 kmh 29.80 in1009.1 mb 0.00 in0.0 mm 0.00 in0.0 mm 0.14 in3.6 mm
04:40 AM 63.5°F17.5°C 62.3°F16.8°C 96% 8.0 mph N12.9 kmh N 13.0 mph20.9 kmh 29.80 in1009.1 mb 0.00 in0.0 mm 0.00 in0.0 mm 0.14 in3.6 mm
04:45 AM 63.1°F17.3°C 61.9°F16.6°C 96% 4.0 mph N6.4 kmh N 7.0 mph11.3 kmh 29.80 in1009.1 mb 0.00 in0.0 mm 0.00 in0.0 mm 0.14 in3.6 mm
04:50 AM 62.9°F17.2°C 61.8°F16.6°C 96% 7.0 mph N11.3 kmh N 9.0 mph14.5 kmh 29.80 in1009.1 mb 0.00 in0.0 mm 0.00 in0.0 mm 0.14 in3.6 mm
04:55 AM 62.8°F17.1°C 61.7°F16.5°C 96% 3.0 mph N4.8 kmh N 10.0 mph16.1 kmh 29.80 in1009.1 mb 0.00 in0.0 mm 0.00 in0.0 mm 0.14 in3.6 mm
05:00 AM 62.6°F17.0°C 61.5°F16.4°C 96% 5.0 mph N8.0 kmh N 5.0 mph8.0 kmh 29.79 in1008.8 mb 0.00 in0.0 mm 0.00 in0.0 mm 0.14 in3.6 mm
05:05 AM 62.4°F16.9°C 61.3°F16.3°C 96% 1.0 mph N1.6 kmh N 10.0 mph16.1 kmh 29.79 in1008.8 mb 0.00 in0.0 mm 0.00 in0.0 mm 0.14 in3.6 mm
05:10 AM 62.3°F16.8°C 61.2°F16.2°C 96% 6.0 mph N9.7 kmh N 11.0 mph17.7 kmh 29.79 in1008.8 mb 0.00 in0.0 mm 0.00 in0.0 mm 0.14 in3.6 mm
05:15 AM 62.1°F16.7°C 61.0°F16.1°C 96% 8.0 mph N12.9 kmh N 8.0 mph12.9 kmh 29.78 in1008.5 mb 0.00 in0.0 mm 0.00 in0.0 mm 0.14 in3.6 mm
05:20 AM 62.0°F16.7°C 60.9°F16.1°C 96% 8.0 mph N12.9 kmh N 12.0 mph19.3 kmh 29.78 in1008.5 mb 0.00 in0.0 mm 0.00 in0.0 mm 0.14 in3.6 mm
05:25 AM 62.0°F16.7°C 60.9°F16.1°C 96% 2.0 mph N3.2 kmh N 12.0 mph19.3 kmh 29.78 in1008.5 mb 0.00 in0.0 mm 0.00 in0.0 mm 0.14 in3.6 mm
05:30 AM 61.9°F16.6°C 60.8°F16.0°C 96% 4.0 mph N6.4 kmh N 6.0 mph9.7 kmh 29.80 in1009.1 mb 0.00 in0.0 mm 0.00 in0.0 mm 0.14 in3.6 mm
05:35 AM 61.9°F16.6°C 60.8°F16.0°C 96% 3.0 mph N4.8 kmh N 8.0 mph12.9 kmh 29.81 in1009.5 mb 0.00 in0.0 mm 0.00 in0.0 mm 0.14 in3.6 mm
05:40 AM 61.8°F16.6°C 60.7°F15.9°C 96% 3.0 mph N4.8 kmh N 8.0 mph12.9 kmh 29.81 in1009.5 mb 0.00 in0.0 mm 0.00 in0.0 mm 0.14 in3.6 mm
05:45 AM 61.8°F16.6°C 60.7°F15.9°C 96% Calm Calm 4.0 mph6.4 kmh 29.81 in1009.5 mb 0.00 in0.0 mm 0.00 in0.0 mm 0.14 in3.6 mm
05:50 AM 61.8°F16.6°C 60.7°F15.9°C 96% 1.0 mph N1.6 kmh N 5.0 mph8.0 kmh 29.81 in1009.5 mb 0.00 in0.0 mm 0.00 in0.0 mm 0.14 in3.6 mm
05:55 AM 61.7°F16.5°C 60.6°F15.9°C 96% 1.0 mph N1.6 kmh N 6.0 mph9.7 kmh 29.81 in1009.5 mb 0.00 in0.0 mm 0.00 in0.0 mm 0.14 in3.6 mm
06:00 AM 61.7°F16.5°C 60.6°F15.9°C 96% 2.0 mph N3.2 kmh N 2.0 mph3.2 kmh 29.81 in1009.5 mb 0.00 in0.0 mm 0.00 in0.0 mm 0.14 in3.6 mm
06:05 AM 61.7°F16.5°C 60.6°F15.9°C 96% 1.0 mph N1.6 kmh N 7.0 mph11.3 kmh 29.82 in1009.8 mb 0.00 in0.0 mm 0.00 in0.0 mm 0.14 in3.6 mm
06:10 AM 61.6°F16.4°C 60.5°F15.8°C 96% 4.0 mph N6.4 kmh N 7.0 mph11.3 kmh 29.81 in1009.5 mb 0.00 in0.0 mm 0.00 in0.0 mm 0.14 in3.6 mm
06:15 AM 61.6°F16.4°C 60.5°F15.8°C 96% 2.0 mph N3.2 kmh N 3.0 mph4.8 kmh 29.82 in1009.8 mb 0.00 in0.0 mm 0.00 in0.0 mm 0.14 in3.6 mm
06:20 AM 61.6°F16.4°C 60.5°F15.8°C 96% 5.0 mph N8.0 kmh N 5.0 mph8.0 kmh 29.81 in1009.5 mb 0.00 in0.0 mm 0.00 in0.0 mm 0.14 in3.6 mm
06:25 AM 61.6°F16.4°C 60.5°F15.8°C 96% 3.0 mph N4.8 kmh N 5.0 mph8.0 kmh 29.81 in1009.5 mb 0.00 in0.0 mm 0.00 in0.0 mm 0.14 in3.6 mm
06:30 AM 61.6°F16.4°C 60.5°F15.8°C 96% 3.0 mph N4.8 kmh N 7.0 mph11.3 kmh 29.81 in1009.5 mb 0.00 in0.0 mm 0.00 in0.0 mm 0.14 in3.6 mm
06:35 AM 61.6°F16.4°C 60.5°F15.8°C 96% 2.0 mph N3.2 kmh N 7.0 mph11.3 kmh 29.82 in1009.8 mb 0.00 in0.0 mm 0.00 in0.0 mm 0.14 in3.6 mm
06:40 AM 61.6°F16.4°C 60.5°F15.8°C 96% Calm Calm 7.0 mph11.3 kmh 29.82 in1009.8 mb 0.00 in0.0 mm 0.00 in0.0 mm 0.14 in3.6 mm
06:45 AM 61.6°F16.4°C 60.5°F15.8°C 96% 1.0 mph N1.6 kmh N 1.0 mph1.6 kmh 29.83 in1010.2 mb 0.00 in0.0 mm 0.00 in0.0 mm 0.14 in3.6 mm
06:50 AM 61.6°F16.4°C 60.5°F15.8°C 96% 1.0 mph N1.6 kmh N 5.0 mph8.0 kmh 29.83 in1010.2 mb 0.00 in0.0 mm 0.00 in0.0 mm 0.14 in3.6 mm
06:55 AM 61.7°F16.5°C 60.6°F15.9°C 96% 3.0 mph N4.8 kmh N 5.0 mph8.0 kmh 29.83 in1010.2 mb 0.00 in0.0 mm 0.00 in0.0 mm 0.14 in3.6 mm
07:00 AM 61.7°F16.5°C 60.6°F15.9°C 96% 1.0 mph N1.6 kmh N 2.0 mph3.2 kmh 29.83 in1010.2 mb 0.00 in0.0 mm 0.00 in0.0 mm 0.14 in3.6 mm
07:05 AM 61.7°F16.5°C 60.6°F15.9°C 96% 2.0 mph N3.2 kmh N 7.0 mph11.3 kmh 29.83 in1010.2 mb 0.00 in0.0 mm 0.00 in0.0 mm 0.14 in3.6 mm
07:10 AM 61.6°F16.4°C 60.5°F15.8°C 96% 7.0 mph N11.3 kmh N 8.0 mph12.9 kmh 29.82 in1009.8 mb 0.00 in0.0 mm 0.00 in0.0 mm 0.14 in3.6 mm
07:15 AM 61.7°F16.5°C 60.6°F15.9°C 96% 1.0 mph N1.6 kmh N 1.0 mph1.6 kmh 29.82 in1009.8 mb 0.00 in0.0 mm 0.00 in0.0 mm 0.14 in3.6 mm
07:20 AM 61.7°F16.5°C 60.6°F15.9°C 96% 2.0 mph N3.2 kmh N 6.0 mph9.7 kmh 29.82 in1009.8 mb 0.00 in0.0 mm 0.00 in0.0 mm 0.14 in3.6 mm
07:25 AM 61.7°F16.5°C 60.6°F15.9°C 96% 2.0 mph N3.2 kmh N 6.0 mph9.7 kmh 29.82 in1009.8 mb 0.00 in0.0 mm 0.00 in0.0 mm 0.14 in3.6 mm
07:30 AM 61.6°F16.4°C 60.2°F15.7°C 95% 1.0 mph N1.6 kmh N 1.0 mph1.6 kmh 29.83 in1010.2 mb 0.00 in0.0 mm 0.00 in0.0 mm 0.14 in3.6 mm
07:35 AM 61.7°F16.5°C 60.6°F15.9°C 96% Calm Calm 4.0 mph6.4 kmh 29.82 in1009.8 mb 0.00 in0.0 mm 0.00 in0.0 mm 0.14 in3.6 mm
07:40 AM 61.7°F16.5°C 60.3°F15.7°C 95% Calm Calm 6.0 mph9.7 kmh 29.83 in1010.2 mb 0.00 in0.0 mm 0.00 in0.0 mm 0.14 in3.6 mm
07:45 AM 61.8°F16.6°C 60.7°F15.9°C 96% 1.0 mph N1.6 kmh N 3.0 mph4.8 kmh 29.83 in1010.2 mb 0.00 in0.0 mm 0.00 in0.0 mm 0.14 in3.6 mm
07:50 AM 61.9°F16.6°C 60.5°F15.8°C 95% 2.0 mph N3.2 kmh N 7.0 mph11.3 kmh 29.83 in1010.2 mb 0.00 in0.0 mm 0.00 in0.0 mm 0.14 in3.6 mm
07:55 AM 61.8°F16.6°C 60.4°F15.8°C 95% 4.0 mph N6.4 kmh N 7.0 mph11.3 kmh 29.83 in1010.2 mb 0.00 in0.0 mm 0.00 in0.0 mm 0.14 in3.6 mm
08:00 AM 61.8°F16.6°C 60.4°F15.8°C 95% 3.0 mph N4.8 kmh N 3.0 mph4.8 kmh 29.83 in1010.2 mb 0.00 in0.0 mm 0.00 in0.0 mm 0.14 in3.6 mm
08:05 AM 61.9°F16.6°C 60.5°F15.8°C 95% 5.0 mph N8.0 kmh N 9.0 mph14.5 kmh 29.84 in1010.5 mb 0.00 in0.0 mm 0.00 in0.0 mm 0.14 in3.6 mm
08:10 AM 62.0°F16.7°C 60.6°F15.9°C 95% 7.0 mph N11.3 kmh N 9.0 mph14.5 kmh 29.84 in1010.5 mb 0.00 in0.0 mm 0.00 in0.0 mm 0.14 in3.6 mm
08:15 AM 62.0°F16.7°C 60.3°F15.7°C 94% 1.0 mph N1.6 kmh N 2.0 mph3.2 kmh 29.84 in1010.5 mb 0.00 in0.0 mm 0.00 in0.0 mm 0.14 in3.6 mm
08:20 AM 62.0°F16.7°C 60.3°F15.7°C 94% 4.0 mph N6.4 kmh N 10.0 mph16.1 kmh 29.84 in1010.5 mb 0.00 in0.0 mm 0.00 in0.0 mm 0.14 in3.6 mm
08:25 AM 62.0°F16.7°C 60.3°F15.7°C 94% Calm Calm 10.0 mph16.1 kmh 29.84 in1010.5 mb 0.00 in0.0 mm 0.00 in0.0 mm 0.14 in3.6 mm
08:30 AM 62.0°F16.7°C 60.3°F15.7°C 94% 2.0 mph N3.2 kmh N 3.0 mph4.8 kmh 29.84 in1010.5 mb 0.00 in0.0 mm 0.00 in0.0 mm 0.14 in3.6 mm
08:35 AM 62.1°F16.7°C 60.4°F15.8°C 94% 6.0 mph N9.7 kmh N 6.0 mph9.7 kmh 29.84 in1010.5 mb 0.00 in0.0 mm 0.00 in0.0 mm 0.14 in3.6 mm
08:40 AM 62.3°F16.8°C 60.6°F15.9°C 94% 5.0 mph N8.0 kmh N 8.0 mph12.9 kmh 29.84 in1010.5 mb 0.00 in0.0 mm 0.00 in0.0 mm 0.14 in3.6 mm
08:45 AM 62.5°F16.9°C 60.8°F16.0°C 94% 4.0 mph N6.4 kmh N 6.0 mph9.7 kmh 29.84 in1010.5 mb 0.00 in0.0 mm 0.00 in0.0 mm 0.14 in3.6 mm
08:50 AM 62.8°F17.1°C 61.1°F16.2°C 94% 2.0 mph N3.2 kmh N 9.0 mph14.5 kmh 29.84 in1010.5 mb 0.00 in0.0 mm 0.00 in0.0 mm 0.14 in3.6 mm
08:55 AM 63.2°F17.3°C 61.2°F16.2°C 93% 2.0 mph N3.2 kmh N 9.0 mph14.5 kmh 29.84 in1010.5 mb 0.00 in0.0 mm 0.00 in0.0 mm 0.14 in3.6 mm
09:00 AM 63.8°F17.7°C 61.7°F16.5°C 93% 3.0 mph N4.8 kmh N 4.0 mph6.4 kmh 29.84 in1010.5 mb 0.00 in0.0 mm 0.00 in0.0 mm 0.14 in3.6 mm
09:05 AM 64.3°F17.9°C 61.6°F16.4°C 91% Calm Calm 7.0 mph11.3 kmh 29.85 in1010.8 mb 0.00 in0.0 mm 0.00 in0.0 mm 0.14 in3.6 mm
09:10 AM 64.6°F18.1°C 61.6°F16.4°C 90% 5.0 mph N8.0 kmh N 7.0 mph11.3 kmh 29.85 in1010.8 mb 0.00 in0.0 mm 0.00 in0.0 mm 0.14 in3.6 mm
09:15 AM 64.9°F18.3°C 61.9°F16.6°C 90% 4.0 mph N6.4 kmh N 4.0 mph6.4 kmh 29.84 in1010.5 mb 0.00 in0.0 mm 0.00 in0.0 mm 0.14 in3.6 mm
09:20 AM 65.2°F18.4°C 61.9°F16.6°C 89% 4.0 mph N6.4 kmh N 6.0 mph9.7 kmh 29.84 in1010.5 mb 0.00 in0.0 mm 0.00 in0.0 mm 0.14 in3.6 mm
09:25 AM 65.6°F18.7°C 62.0°F16.7°C 88% 5.0 mph N8.0 kmh N 6.0 mph9.7 kmh 29.85 in1010.8 mb 0.00 in0.0 mm 0.00 in0.0 mm 0.14 in3.6 mm
09:30 AM 65.6°F18.7°C 62.0°F16.7°C 88% 1.0 mph N1.6 kmh N 2.0 mph3.2 kmh 29.84 in1010.5 mb 0.00 in0.0 mm 0.00 in0.0 mm 0.14 in3.6 mm
09:35 AM 65.8°F18.8°C 62.5°F16.9°C 89% 2.0 mph N3.2 kmh N 5.0 mph8.0 kmh 29.84 in1010.5 mb 0.00 in0.0 mm 0.00 in0.0 mm 0.14 in3.6 mm
09:40 AM 66.0°F18.9°C 62.4°F16.9°C 88% Calm Calm 6.0 mph9.7 kmh 29.84 in1010.5 mb 0.00 in0.0 mm 0.00 in0.0 mm 0.14 in3.6 mm
09:45 AM 66.2°F19.0°C 62.2°F16.8°C 87% 6.0 mph N9.7 kmh N 7.0 mph11.3 kmh 29.84 in1010.5 mb 0.00 in0.0 mm 0.00 in0.0 mm 0.14 in3.6 mm
09:50 AM 66.3°F19.1°C 62.6°F17.0°C 88% 5.0 mph N8.0 kmh N 7.0 mph11.3 kmh 29.84 in1010.5 mb 0.00 in0.0 mm 0.00 in0.0 mm 0.14 in3.6 mm
09:55 AM 66.4°F19.1°C 62.4°F16.9°C 87% 3.0 mph N4.8 kmh N 9.0 mph14.5 kmh 29.84 in1010.5 mb 0.00 in0.0 mm 0.00 in0.0 mm 0.14 in3.6 mm
10:00 AM 66.3°F19.1°C 62.3°F16.8°C 87% 5.0 mph N8.0 kmh N 5.0 mph8.0 kmh 29.85 in1010.8 mb 0.00 in0.0 mm 0.00 in0.0 mm 0.14 in3.6 mm
10:05 AM 66.2°F19.0°C 62.2°F16.8°C 87% 9.0 mph N14.5 kmh N 11.0 mph17.7 kmh 29.85 in1010.8 mb 0.00 in0.0 mm 0.00 in0.0 mm 0.14 in3.6 mm
10:10 AM 66.2°F19.0°C 62.6°F17.0°C 88% 4.0 mph N6.4 kmh N 11.0 mph17.7 kmh 29.85 in1010.8 mb 0.00 in0.0 mm 0.00 in0.0 mm 0.14 in3.6 mm
10:15 AM 66.2°F19.0°C 62.2°F16.8°C 87% 6.0 mph N9.7 kmh N 8.0 mph12.9 kmh 29.85 in1010.8 mb 0.00 in0.0 mm 0.00 in0.0 mm 0.14 in3.6 mm
10:20 AM 66.3°F19.1°C 62.6°F17.0°C 88% 5.0 mph N8.0 kmh N 8.0 mph12.9 kmh 29.85 in1010.8 mb 0.00 in0.0 mm 0.00 in0.0 mm 0.14 in3.6 mm
10:25 AM 66.4°F19.1°C 62.4°F16.9°C 87% 4.0 mph N6.4 kmh N 11.0 mph17.7 kmh 29.85 in1010.8 mb 0.00 in0.0 mm 0.00 in0.0 mm 0.14 in3.6 mm
10:30 AM 66.4°F19.1°C 62.4°F16.9°C 87% 5.0 mph N8.0 kmh N 8.0 mph12.9 kmh 29.85 in1010.8 mb 0.00 in0.0 mm 0.00 in0.0 mm 0.14 in3.6 mm
10:35 AM 66.5°F19.2°C 62.5°F16.9°C 87% 2.0 mph N3.2 kmh N 10.0 mph16.1 kmh 29.85 in1010.8 mb 0.00 in0.0 mm 0.00 in0.0 mm 0.14 in3.6 mm
10:40 AM 66.5°F19.2°C 62.5°F16.9°C 87% 6.0 mph N9.7 kmh N 10.0 mph16.1 kmh 29.85 in1010.8 mb 0.00 in0.0 mm 0.00 in0.0 mm 0.14 in3.6 mm
10:45 AM 66.5°F19.2°C 62.5°F16.9°C 87% 1.0 mph N1.6 kmh N 6.0 mph9.7 kmh 29.85 in1010.8 mb 0.00 in0.0 mm 0.00 in0.0 mm 0.14 in3.6 mm
10:50 AM 66.6°F19.2°C 62.6°F17.0°C 87% 3.0 mph N4.8 kmh N 7.0 mph11.3 kmh 29.86 in1011.2 mb 0.00 in0.0 mm 0.00 in0.0 mm 0.14 in3.6 mm
10:55 AM 66.6°F19.2°C 62.6°F17.0°C 87% 3.0 mph N4.8 kmh N 8.0 mph12.9 kmh 29.86 in1011.2 mb 0.00 in0.0 mm 0.00 in0.0 mm 0.14 in3.6 mm
11:00 AM 66.6°F19.2°C 62.3°F16.8°C 86% 5.0 mph N8.0 kmh N 8.0 mph12.9 kmh 29.86 in1011.2 mb 0.00 in0.0 mm 0.00 in0.0 mm 0.14 in3.6 mm
11:05 AM 66.5°F19.2°C 62.2°F16.8°C 86% 3.0 mph N4.8 kmh N 10.0 mph16.1 kmh 29.87 in1011.5 mb 0.00 in0.0 mm 0.00 in0.0 mm 0.14 in3.6 mm
11:10 AM 66.5°F19.2°C 62.2°F16.8°C 86% 4.0 mph N6.4 kmh N 10.0 mph16.1 kmh 29.87 in1011.5 mb 0.00 in0.0 mm 0.00 in0.0 mm 0.14 in3.6 mm
11:15 AM 66.5°F19.2°C 62.2°F16.8°C 86% 4.0 mph N6.4 kmh N 4.0 mph6.4 kmh 29.87 in1011.5 mb 0.00 in0.0 mm 0.00 in0.0 mm 0.14 in3.6 mm
11:20 AM 66.7°F19.3°C 62.4°F16.9°C 86% 6.0 mph N9.7 kmh N 9.0 mph14.5 kmh 29.87 in1011.5 mb 0.00 in0.0 mm 0.00 in0.0 mm 0.14 in3.6 mm
11:25 AM 67.0°F19.4°C 63.0°F17.2°C 87% 6.0 mph N9.7 kmh N 10.0 mph16.1 kmh 29.88 in1011.9 mb 0.00 in0.0 mm 0.00 in0.0 mm 0.14 in3.6 mm
11:30 AM 67.1°F19.5°C 62.5°F16.9°C 85% 7.0 mph N11.3 kmh N 7.0 mph11.3 kmh 29.87 in1011.5 mb 0.00 in0.0 mm 0.00 in0.0 mm 0.14 in3.6 mm
11:35 AM 66.9°F19.4°C 62.3°F16.8°C 85% 9.0 mph N14.5 kmh N 9.0 mph14.5 kmh 29.88 in1011.9 mb 0.00 in0.0 mm 0.00 in0.0 mm 0.14 in3.6 mm
11:40 AM 66.8°F19.3°C 62.2°F16.8°C 85% 6.0 mph N9.7 kmh N 9.0 mph14.5 kmh 29.88 in1011.9 mb 0.00 in0.0 mm 0.00 in0.0 mm 0.14 in3.6 mm
11:45 AM 66.7°F19.3°C 62.4°F16.9°C 86% 6.0 mph N9.7 kmh N 6.0 mph9.7 kmh 29.88 in1011.9 mb 0.00 in0.0 mm 0.00 in0.0 mm 0.14 in3.6 mm
11:50 AM 66.7°F19.3°C 62.4°F16.9°C 86% Calm Calm 8.0 mph12.9 kmh 29.88 in1011.9 mb 0.00 in0.0 mm 0.00 in0.0 mm 0.14 in3.6 mm
11:55 AM 66.7°F19.3°C 62.1°F16.7°C 85% 4.0 mph N6.4 kmh N 9.0 mph14.5 kmh 29.88 in1011.9 mb 0.00 in0.0 mm 0.00 in0.0 mm 0.14 in3.6 mm
12:00 PM 66.7°F19.3°C 62.4°F16.9°C 86% Calm Calm 1.0 mph1.6 kmh 29.88 in1011.9 mb 0.00 in0.0 mm 0.00 in0.0 mm 0.14 in3.6 mm
12:05 PM 66.9°F19.4°C 62.3°F16.8°C 85% 4.0 mph N6.4 kmh N 9.0 mph14.5 kmh 29.88 in1011.9 mb 0.00 in0.0 mm 0.00 in0.0 mm 0.14 in3.6 mm
12:10 PM 67.0°F19.4°C 62.7°F17.1°C 86% 2.0 mph N3.2 kmh N 9.0 mph14.5 kmh 29.89 in1012.2 mb 0.00 in0.0 mm 0.00 in0.0 mm 0.14 in3.6 mm
12:15 PM 67.2°F19.6°C 62.5°F16.9°C 85% 5.0 mph N8.0 kmh N 5.0 mph8.0 kmh 29.88 in1011.9 mb 0.00 in0.0 mm 0.00 in0.0 mm 0.14 in3.6 mm
12:20 PM 67.3°F19.6°C 62.6°F17.0°C 85% 5.0 mph N8.0 kmh N 7.0 mph11.3 kmh 29.88 in1011.9 mb 0.00 in0.0 mm 0.00 in0.0 mm 0.14 in3.6 mm
12:25 PM 67.5°F19.7°C 62.8°F17.1°C 85% 5.0 mph N8.0 kmh N 9.0 mph14.5 kmh 29.89 in1012.2 mb 0.00 in0.0 mm 0.00 in0.0 mm 0.14 in3.6 mm
12:30 PM 67.7°F19.8°C 62.7°F17.1°C 84% 3.0 mph N4.8 kmh N 3.0 mph4.8 kmh 29.89 in1012.2 mb 0.00 in0.0 mm 0.00 in0.0 mm 0.14 in3.6 mm
12:35 PM 67.9°F19.9°C 62.9°F17.2°C 84% 3.0 mph N4.8 kmh N 6.0 mph9.7 kmh 29.89 in1012.2 mb 0.00 in0.0 mm 0.00 in0.0 mm 0.14 in3.6 mm
12:40 PM 68.4°F20.2°C 63.4°F17.4°C 84% 2.0 mph N3.2 kmh N 8.0 mph12.9 kmh 29.89 in1012.2 mb 0.00 in0.0 mm 0.00 in0.0 mm 0.14 in3.6 mm
12:45 PM 69.1°F20.6°C 63.4°F17.4°C 82% 2.0 mph N3.2 kmh N 4.0 mph6.4 kmh 29.89 in1012.2 mb 0.00 in0.0 mm 0.00 in0.0 mm 0.14 in3.6 mm
12:50 PM 69.7°F20.9°C 63.3°F17.4°C 80% 1.0 mph N1.6 kmh N 7.0 mph11.3 kmh 29.89 in1012.2 mb 0.00 in0.0 mm 0.00 in0.0 mm 0.14 in3.6 mm
12:55 PM 70.1°F21.2°C 63.3°F17.4°C 79% 4.0 mph N6.4 kmh N 7.0 mph11.3 kmh 29.89 in1012.2 mb 0.00 in0.0 mm 0.00 in0.0 mm 0.14 in3.6 mm
01:00 PM 70.2°F21.2°C 63.4°F17.4°C 79% 4.0 mph N6.4 kmh N 7.0 mph11.3 kmh 29.89 in1012.2 mb 0.00 in0.0 mm 0.00 in0.0 mm 0.14 in3.6 mm
01:05 PM 70.1°F21.2°C 63.3°F17.4°C 79% 4.0 mph N6.4 kmh N 7.0 mph11.3 kmh 29.89 in1012.2 mb 0.00 in0.0 mm 0.00 in0.0 mm 0.14 in3.6 mm
01:10 PM 70.1°F21.2°C 63.3°F17.4°C 79% 3.0 mph N4.8 kmh N 9.0 mph14.5 kmh 29.89 in1012.2 mb 0.00 in0.0 mm 0.00 in0.0 mm 0.14 in3.6 mm
01:15 PM 70.0°F21.1°C 63.2°F17.3°C 79% 7.0 mph N11.3 kmh N 7.0 mph11.3 kmh 29.90 in1012.5 mb 0.00 in0.0 mm 0.00 in0.0 mm 0.14 in3.6 mm
01:20 PM 69.8°F21.0°C 63.0°F17.2°C 79% 3.0 mph N4.8 kmh N 8.0 mph12.9 kmh 29.90 in1012.5 mb 0.00 in0.0 mm 0.00 in0.0 mm 0.14 in3.6 mm
01:25 PM 69.7°F20.9°C 63.3°F17.4°C 80% 4.0 mph N6.4 kmh N 8.0 mph12.9 kmh 29.90 in1012.5 mb 0.00 in0.0 mm 0.00 in0.0 mm 0.14 in3.6 mm
01:30 PM 69.5°F20.8°C 63.1°F17.3°C 80% 5.0 mph N8.0 kmh N 6.0 mph9.7 kmh 29.89 in1012.2 mb 0.00 in0.0 mm 0.00 in0.0 mm 0.14 in3.6 mm
01:35 PM 69.5°F20.8°C 63.1°F17.3°C 80% 2.0 mph N3.2 kmh N 6.0 mph9.7 kmh 29.89 in1012.2 mb 0.00 in0.0 mm 0.00 in0.0 mm 0.14 in3.6 mm
01:40 PM 69.7°F20.9°C 63.6°F17.6°C 81% 2.0 mph N3.2 kmh N 6.0 mph9.7 kmh 29.89 in1012.2 mb 0.00 in0.0 mm 0.00 in0.0 mm 0.14 in3.6 mm
01:45 PM 69.9°F21.1°C 63.1°F17.3°C 79% 5.0 mph N8.0 kmh N 7.0 mph11.3 kmh 29.89 in1012.2 mb 0.00 in0.0 mm 0.00 in0.0 mm 0.14 in3.6 mm
01:50 PM 70.2°F21.2°C 63.4°F17.4°C 79% 6.0 mph N9.7 kmh N 9.0 mph14.5 kmh 29.88 in1011.9 mb 0.00 in0.0 mm 0.00 in0.0 mm 0.14 in3.6 mm
01:55 PM 70.5°F21.4°C 63.7°F17.6°C 79% 4.0 mph N6.4 kmh N 9.0 mph14.5 kmh 29.88 in1011.9 mb 0.00 in0.0 mm 0.00 in0.0 mm 0.14 in3.6 mm
02:00 PM 70.7°F21.5°C 63.1°F17.3°C 77% 4.0 mph N6.4 kmh N 5.0 mph8.0 kmh 29.89 in1012.2 mb 0.00 in0.0 mm 0.00 in0.0 mm 0.14 in3.6 mm
02:05 PM 70.8°F21.6°C 63.2°F17.3°C 77% 2.0 mph N3.2 kmh N 8.0 mph12.9 kmh 29.89 in1012.2 mb 0.00 in0.0 mm 0.00 in0.0 mm 0.14 in3.6 mm
02:10 PM 70.9°F21.6°C 63.3°F17.4°C 77% 2.0 mph N3.2 kmh N 8.0 mph12.9 kmh 29.89 in1012.2 mb 0.00 in0.0 mm 0.00 in0.0 mm 0.14 in3.6 mm
02:15 PM 71.0°F21.7°C 63.1°F17.3°C 76% 4.0 mph N6.4 kmh N 4.0 mph6.4 kmh 29.88 in1011.9 mb 0.00 in0.0 mm 0.00 in0.0 mm 0.14 in3.6 mm
02:20 PM 71.1°F21.7°C 62.8°F17.1°C 75% 5.0 mph N8.0 kmh N 7.0 mph11.3 kmh 29.89 in1012.2 mb 0.00 in0.0 mm 0.00 in0.0 mm 0.14 in3.6 mm
02:25 PM 71.1°F21.7°C 63.2°F17.3°C 76% 5.0 mph N8.0 kmh N 7.0 mph11.3 kmh 29.89 in1012.2 mb 0.00 in0.0 mm 0.00 in0.0 mm 0.14 in3.6 mm
02:30 PM 71.2°F21.8°C 63.3°F17.4°C 76% 2.0 mph N3.2 kmh N 4.0 mph6.4 kmh 29.89 in1012.2 mb 0.00 in0.0 mm 0.00 in0.0 mm 0.14 in3.6 mm
02:35 PM 71.2°F21.8°C 63.6°F17.6°C 77% 3.0 mph N4.8 kmh N 10.0 mph16.1 kmh 29.89 in1012.2 mb 0.00 in0.0 mm 0.00 in0.0 mm 0.14 in3.6 mm
02:40 PM 71.3°F21.8°C 63.7°F17.6°C 77% 4.0 mph N6.4 kmh N 10.0 mph16.1 kmh 29.89 in1012.2 mb 0.00 in0.0 mm 0.00 in0.0 mm 0.14 in3.6 mm
02:45 PM 71.3°F21.8°C 63.7°F17.6°C 77% 3.0 mph N4.8 kmh N 4.0 mph6.4 kmh 29.90 in1012.5 mb 0.00 in0.0 mm 0.00 in0.0 mm 0.14 in3.6 mm
02:50 PM 71.4°F21.9°C 63.5°F17.5°C 76% 7.0 mph N11.3 kmh N 7.0 mph11.3 kmh 29.89 in1012.2 mb 0.00 in0.0 mm 0.00 in0.0 mm 0.14 in3.6 mm
02:55 PM 71.5°F21.9°C 63.6°F17.6°C 76% 1.0 mph N1.6 kmh N 7.0 mph11.3 kmh 29.89 in1012.2 mb 0.00 in0.0 mm 0.00 in0.0 mm 0.14 in3.6 mm
03:00 PM 71.9°F22.2°C 64.3°F17.9°C 77% 6.0 mph N9.7 kmh N 6.0 mph9.7 kmh 29.90 in1012.5 mb 0.00 in0.0 mm 0.00 in0.0 mm 0.14 in3.6 mm
03:05 PM 72.5°F22.5°C 64.1°F17.8°C 75% 2.0 mph N3.2 kmh N 6.0 mph9.7 kmh 29.89 in1012.2 mb 0.00 in0.0 mm 0.00 in0.0 mm 0.14 in3.6 mm
03:10 PM 73.0°F22.8°C 64.2°F17.9°C 74% 2.0 mph N3.2 kmh N 8.0 mph12.9 kmh 29.89 in1012.2 mb 0.00 in0.0 mm 0.00 in0.0 mm 0.14 in3.6 mm
03:15 PM 73.5°F23.1°C 64.7°F18.2°C 74% 8.0 mph N12.9 kmh N 8.0 mph12.9 kmh 29.89 in1012.2 mb 0.00 in0.0 mm 0.00 in0.0 mm 0.14 in3.6 mm
03:20 PM 73.8°F23.2°C 64.2°F17.9°C 72% 2.0 mph N3.2 kmh N 8.0 mph12.9 kmh 29.89 in1012.2 mb 0.00 in0.0 mm 0.00 in0.0 mm 0.14 in3.6 mm
03:25 PM 73.5°F23.1°C 63.5°F17.5°C 71% Calm Calm 8.0 mph12.9 kmh 29.89 in1012.2 mb 0.00 in0.0 mm 0.00 in0.0 mm 0.14 in3.6 mm
03:30 PM 73.2°F22.9°C 63.6°F17.6°C 72% 4.0 mph N6.4 kmh N 4.0 mph6.4 kmh 29.90 in1012.5 mb 0.00 in0.0 mm 0.00 in0.0 mm 0.14 in3.6 mm
03:35 PM 73.1°F22.8°C 63.2°F17.3°C 71% 3.0 mph N4.8 kmh N 7.0 mph11.3 kmh 29.91 in1012.9 mb 0.00 in0.0 mm 0.00 in0.0 mm 0.14 in3.6 mm
03:40 PM 72.9°F22.7°C 63.8°F17.7°C 73% 1.0 mph N1.6 kmh N 7.0 mph11.3 kmh 29.91 in1012.9 mb 0.00 in0.0 mm 0.00 in0.0 mm 0.14 in3.6 mm
03:45 PM 72.9°F22.7°C 64.1°F17.8°C 74% 2.0 mph N3.2 kmh N 2.0 mph3.2 kmh 29.91 in1012.9 mb 0.00 in0.0 mm 0.00 in0.0 mm 0.14 in3.6 mm
03:50 PM 73.1°F22.8°C 63.9°F17.7°C 73% 1.0 mph N1.6 kmh N 3.0 mph4.8 kmh 29.91 in1012.9 mb 0.00 in0.0 mm 0.00 in0.0 mm 0.14 in3.6 mm
03:55 PM 73.2°F22.9°C 63.6°F17.6°C 72% 3.0 mph N4.8 kmh N 4.0 mph6.4 kmh 29.91 in1012.9 mb 0.00 in0.0 mm 0.00 in0.0 mm 0.14 in3.6 mm
04:00 PM 73.1°F22.8°C 63.9°F17.7°C 73% Calm Calm -- 29.91 in1012.9 mb 0.00 in0.0 mm 0.00 in0.0 mm 0.14 in3.6 mm
04:05 PM 73.2°F22.9°C 64.4°F18.0°C 74% 3.0 mph N4.8 kmh N 3.0 mph4.8 kmh 29.91 in1012.9 mb 0.00 in0.0 mm 0.00 in0.0 mm 0.14 in3.6 mm
04:10 PM 73.5°F23.1°C 64.3°F17.9°C 73% Calm Calm 3.0 mph4.8 kmh 29.91 in1012.9 mb 0.00 in0.0 mm 0.00 in0.0 mm 0.14 in3.6 mm
04:15 PM 73.7°F23.2°C 63.7°F17.6°C 71% Calm Calm -- 29.91 in1012.9 mb 0.00 in0.0 mm 0.00 in0.0 mm 0.14 in3.6 mm
04:20 PM 73.7°F23.2°C 64.1°F17.8°C 72% 4.0 mph N6.4 kmh N 4.0 mph6.4 kmh 29.91 in1012.9 mb 0.00 in0.0 mm 0.00 in0.0 mm 0.14 in3.6 mm
04:25 PM 73.6°F23.1°C 64.0°F17.8°C 72% Calm Calm 4.0 mph6.4 kmh 29.91 in1012.9 mb 0.00 in0.0 mm 0.00 in0.0 mm 0.14 in3.6 mm
04:30 PM 73.5°F23.1°C 64.3°F17.9°C 73% 3.0 mph N4.8 kmh N 3.0 mph4.8 kmh 29.91 in1012.9 mb 0.00 in0.0 mm 0.00 in0.0 mm 0.14 in3.6 mm
04:35 PM 73.3°F22.9°C 63.3°F17.4°C 71% Calm Calm 3.0 mph4.8 kmh 29.91 in1012.9 mb 0.00 in0.0 mm 0.00 in0.0 mm 0.14 in3.6 mm
04:40 PM 73.3°F22.9°C 64.1°F17.8°C 73% 4.0 mph N6.4 kmh N 4.0 mph6.4 kmh 29.91 in1012.9 mb 0.00 in0.0 mm 0.00 in0.0 mm 0.14 in3.6 mm
04:45 PM 73.3°F22.9°C 64.1°F17.8°C 73% 4.0 mph N6.4 kmh N 4.0 mph6.4 kmh 29.90 in1012.5 mb 0.00 in0.0 mm 0.00 in0.0 mm 0.14 in3.6 mm
04:50 PM 73.3°F22.9°C 64.1°F17.8°C 73% 3.0 mph N4.8 kmh N 5.0 mph8.0 kmh 29.91 in1012.9 mb 0.00 in0.0 mm 0.00 in0.0 mm 0.14 in3.6 mm
04:55 PM 73.2°F22.9°C 64.0°F17.8°C 73% 2.0 mph N3.2 kmh N 5.0 mph8.0 kmh 29.91 in1012.9 mb 0.00 in0.0 mm 0.00 in0.0 mm 0.14 in3.6 mm
05:00 PM 73.2°F22.9°C 63.6°F17.6°C 72% 2.0 mph N3.2 kmh N 3.0 mph4.8 kmh 29.91 in1012.9 mb 0.00 in0.0 mm 0.00 in0.0 mm 0.14 in3.6 mm
05:05 PM 73.1°F22.8°C 64.3°F17.9°C 74% 3.0 mph N4.8 kmh N 6.0 mph9.7 kmh 29.91 in1012.9 mb 0.00 in0.0 mm 0.00 in0.0 mm 0.14 in3.6 mm
05:10 PM 73.1°F22.8°C 63.9°F17.7°C 73% Calm Calm 6.0 mph9.7 kmh 29.91 in1012.9 mb 0.00 in0.0 mm 0.00 in0.0 mm 0.14 in3.6 mm
05:15 PM 73.1°F22.8°C 64.3°F17.9°C 74% 2.0 mph N3.2 kmh N 2.0 mph3.2 kmh 29.91 in1012.9 mb 0.00 in0.0 mm 0.00 in0.0 mm 0.14 in3.6 mm
05:20 PM 73.3°F22.9°C 64.9°F18.3°C 75% 3.0 mph N4.8 kmh N 6.0 mph9.7 kmh 29.91 in1012.9 mb 0.00 in0.0 mm 0.00 in0.0 mm 0.14 in3.6 mm
05:25 PM 73.3°F22.9°C 64.9°F18.3°C 75% 1.0 mph N1.6 kmh N 6.0 mph9.7 kmh 29.91 in1012.9 mb 0.00 in0.0 mm 0.00 in0.0 mm 0.14 in3.6 mm
05:30 PM 73.3°F22.9°C 64.1°F17.8°C 73% 4.0 mph N6.4 kmh N 4.0 mph6.4 kmh 29.91 in1012.9 mb 0.00 in0.0 mm 0.00 in0.0 mm 0.14 in3.6 mm
05:35 PM 73.3°F22.9°C 64.5°F18.1°C 74% Calm Calm 4.0 mph6.4 kmh 29.91 in1012.9 mb 0.00 in0.0 mm 0.00 in0.0 mm 0.14 in3.6 mm
05:40 PM 73.6°F23.1°C 64.8°F18.2°C 74% 2.0 mph N3.2 kmh N 4.0 mph6.4 kmh 29.90 in1012.5 mb 0.00 in0.0 mm 0.00 in0.0 mm 0.14 in3.6 mm
05:45 PM 73.7°F23.2°C 64.9°F18.3°C 74% 2.0 mph N3.2 kmh N 3.0 mph4.8 kmh 29.90 in1012.5 mb 0.00 in0.0 mm 0.00 in0.0 mm 0.14 in3.6 mm
05:50 PM 73.9°F23.3°C 64.7°F18.2°C 73% 1.0 mph N1.6 kmh N 5.0 mph8.0 kmh 29.89 in1012.2 mb 0.00 in0.0 mm 0.00 in0.0 mm 0.14 in3.6 mm
05:55 PM 74.1°F23.4°C 64.9°F18.3°C 73% 5.0 mph N8.0 kmh N 6.0 mph9.7 kmh 29.89 in1012.2 mb 0.00 in0.0 mm 0.00 in0.0 mm 0.14 in3.6 mm
06:00 PM 74.0°F23.3°C 65.2°F18.4°C 74% 3.0 mph N4.8 kmh N 6.0 mph9.7 kmh 29.88 in1011.9 mb 0.00 in0.0 mm 0.00 in0.0 mm 0.14 in3.6 mm
06:05 PM 74.3°F23.5°C 64.7°F18.2°C 72% 4.0 mph N6.4 kmh N 7.0 mph11.3 kmh 29.89 in1012.2 mb 0.00 in0.0 mm 0.00 in0.0 mm 0.14 in3.6 mm
06:10 PM 74.5°F23.6°C 64.5°F18.1°C 71% 5.0 mph N8.0 kmh N 8.0 mph12.9 kmh 29.90 in1012.5 mb 0.00 in0.0 mm 0.00 in0.0 mm 0.14 in3.6 mm
06:15 PM 74.3°F23.5°C 64.7°F18.2°C 72% 3.0 mph N4.8 kmh N 4.0 mph6.4 kmh 29.90 in1012.5 mb 0.00 in0.0 mm 0.00 in0.0 mm 0.14 in3.6 mm
06:20 PM 74.2°F23.4°C 65.0°F18.3°C 73% 1.0 mph N1.6 kmh N 6.0 mph9.7 kmh 29.90 in1012.5 mb 0.00 in0.0 mm 0.00 in0.0 mm 0.14 in3.6 mm
06:25 PM 74.1°F23.4°C 64.1°F17.8°C 71% 5.0 mph N8.0 kmh N 6.0 mph9.7 kmh 29.90 in1012.5 mb 0.00 in0.0 mm 0.00 in0.0 mm 0.14 in3.6 mm
06:30 PM 74.0°F23.3°C 64.4°F18.0°C 72% Calm Calm -- 29.91 in1012.9 mb 0.00 in0.0 mm 0.00 in0.0 mm 0.14 in3.6 mm
06:35 PM 73.9°F23.3°C 64.7°F18.2°C 73% Calm Calm 3.0 mph4.8 kmh 29.91 in1012.9 mb 0.00 in0.0 mm 0.00 in0.0 mm 0.14 in3.6 mm
06:40 PM 73.9°F23.3°C 64.3°F17.9°C 72% 3.0 mph N4.8 kmh N 5.0 mph8.0 kmh 29.91 in1012.9 mb 0.00 in0.0 mm 0.00 in0.0 mm 0.14 in3.6 mm
06:45 PM 74.0°F23.3°C 64.4°F18.0°C 72% 2.0 mph N3.2 kmh N 2.0 mph3.2 kmh 29.91 in1012.9 mb 0.00 in0.0 mm 0.00 in0.0 mm 0.14 in3.6 mm
06:50 PM 74.1°F23.4°C 64.9°F18.3°C 73% 4.0 mph N6.4 kmh N 5.0 mph8.0 kmh 29.91 in1012.9 mb 0.00 in0.0 mm 0.00 in0.0 mm 0.14 in3.6 mm
06:55 PM 74.1°F23.4°C 64.1°F17.8°C 71% Calm Calm 5.0 mph8.0 kmh 29.91 in1012.9 mb 0.00 in0.0 mm 0.00 in0.0 mm 0.14 in3.6 mm
07:00 PM 74.1°F23.4°C 64.1°F17.8°C 71% 3.0 mph N4.8 kmh N 3.0 mph4.8 kmh 29.91 in1012.9 mb 0.00 in0.0 mm 0.00 in0.0 mm 0.14 in3.6 mm
07:05 PM 74.1°F23.4°C 64.1°F17.8°C 71% Calm Calm 4.0 mph6.4 kmh 29.91 in1012.9 mb 0.00 in0.0 mm 0.00 in0.0 mm 0.14 in3.6 mm
07:10 PM 74.3°F23.5°C 64.3°F17.9°C 71% 2.0 mph N3.2 kmh N 5.0 mph8.0 kmh 29.91 in1012.9 mb 0.00 in0.0 mm 0.00 in0.0 mm 0.14 in3.6 mm
07:15 PM 74.3°F23.5°C 63.9°F17.7°C 70% 2.0 mph N3.2 kmh N 4.0 mph6.4 kmh 29.92 in1013.2 mb 0.00 in0.0 mm 0.00 in0.0 mm 0.14 in3.6 mm
07:20 PM 74.1°F23.4°C 64.5°F18.1°C 72% 1.0 mph N1.6 kmh N 5.0 mph8.0 kmh 29.92 in1013.2 mb 0.00 in0.0 mm 0.00 in0.0 mm 0.14 in3.6 mm
07:25 PM 74.1°F23.4°C 64.5°F18.1°C 72% 2.0 mph N3.2 kmh N 5.0 mph8.0 kmh 29.92 in1013.2 mb 0.00 in0.0 mm 0.00 in0.0 mm 0.14 in3.6 mm
07:30 PM 74.1°F23.4°C 64.5°F18.1°C 72% 1.0 mph N1.6 kmh N 2.0 mph3.2 kmh 29.92 in1013.2 mb 0.00 in0.0 mm 0.00 in0.0 mm 0.14 in3.6 mm
07:35 PM 74.1°F23.4°C 64.1°F17.8°C 71% 3.0 mph N4.8 kmh N 5.0 mph8.0 kmh 29.92 in1013.2 mb 0.00 in0.0 mm 0.00 in0.0 mm 0.14 in3.6 mm
07:40 PM 74.2°F23.4°C 64.6°F18.1°C 72% 1.0 mph N1.6 kmh N 5.0 mph8.0 kmh 29.92 in1013.2 mb 0.00 in0.0 mm 0.00 in0.0 mm 0.14 in3.6 mm
07:45 PM 74.2°F23.4°C 64.2°F17.9°C 71% 1.0 mph N1.6 kmh N 2.0 mph3.2 kmh 29.92 in1013.2 mb 0.00 in0.0 mm 0.00 in0.0 mm 0.14 in3.6 mm
07:50 PM 74.1°F23.4°C 64.5°F18.1°C 72% Calm Calm 5.0 mph8.0 kmh 29.92 in1013.2 mb 0.00 in0.0 mm 0.00 in0.0 mm 0.14 in3.6 mm
07:55 PM 74.2°F23.4°C 64.2°F17.9°C 71% 1.0 mph N1.6 kmh N 5.0 mph8.0 kmh 29.92 in1013.2 mb 0.00 in0.0 mm 0.00 in0.0 mm 0.14 in3.6 mm
08:00 PM 74.2°F23.4°C 64.2°F17.9°C 71% 1.0 mph N1.6 kmh N 1.0 mph1.6 kmh 29.92 in1013.2 mb 0.00 in0.0 mm 0.00 in0.0 mm 0.14 in3.6 mm
08:05 PM 74.1°F23.4°C 64.1°F17.8°C 71% 1.0 mph N1.6 kmh N 3.0 mph4.8 kmh 29.92 in1013.2 mb 0.00 in0.0 mm 0.00 in0.0 mm 0.14 in3.6 mm
08:10 PM 74.0°F23.3°C 64.4°F18.0°C 72% 2.0 mph N3.2 kmh N 3.0 mph4.8 kmh 29.92 in1013.2 mb 0.00 in0.0 mm 0.00 in0.0 mm 0.14 in3.6 mm
08:15 PM 73.9°F23.3°C 64.3°F17.9°C 72% 1.0 mph N1.6 kmh N 2.0 mph3.2 kmh 29.93 in1013.5 mb 0.00 in0.0 mm 0.00 in0.0 mm 0.14 in3.6 mm
08:20 PM 73.8°F23.2°C 64.6°F18.1°C 73% 1.0 mph N1.6 kmh N 4.0 mph6.4 kmh 29.92 in1013.2 mb 0.00 in0.0 mm 0.00 in0.0 mm 0.14 in3.6 mm
08:25 PM 73.7°F23.2°C 64.5°F18.1°C 73% Calm Calm 5.0 mph8.0 kmh 29.92 in1013.2 mb 0.00 in0.0 mm 0.00 in0.0 mm 0.14 in3.6 mm
08:30 PM 73.6°F23.1°C 64.8°F18.2°C 74% 3.0 mph N4.8 kmh N 3.0 mph4.8 kmh 29.92 in1013.2 mb 0.00 in0.0 mm 0.00 in0.0 mm 0.14 in3.6 mm
08:35 PM 73.3°F22.9°C 64.9°F18.3°C 75% 1.0 mph N1.6 kmh N 4.0 mph6.4 kmh 29.92 in1013.2 mb 0.00 in0.0 mm 0.00 in0.0 mm 0.14 in3.6 mm
08:40 PM 73.1°F22.8°C 64.7°F18.2°C 75% 2.0 mph N3.2 kmh N 4.0 mph6.4 kmh 29.92 in1013.2 mb 0.00 in0.0 mm 0.00 in0.0 mm 0.14 in3.6 mm
08:45 PM 72.8°F22.7°C 64.8°F18.2°C 76% 1.0 mph N1.6 kmh N 1.0 mph1.6 kmh 29.93 in1013.5 mb 0.00 in0.0 mm 0.00 in0.0 mm 0.14 in3.6 mm
08:50 PM 72.5°F22.5°C 64.5°F18.1°C 76% Calm Calm 3.0 mph4.8 kmh 29.93 in1013.5 mb 0.00 in0.0 mm 0.00 in0.0 mm 0.14 in3.6 mm
08:55 PM 72.4°F22.4°C 64.4°F18.0°C 76% Calm Calm 3.0 mph4.8 kmh 29.93 in1013.5 mb 0.00 in0.0 mm 0.00 in0.0 mm 0.14 in3.6 mm
09:00 PM 72.2°F22.3°C 64.2°F17.9°C 76% 1.0 mph N1.6 kmh N 1.0 mph1.6 kmh 29.93 in1013.5 mb 0.00 in0.0 mm 0.00 in0.0 mm 0.14 in3.6 mm
09:05 PM 72.0°F22.2°C 64.4°F18.0°C 77% Calm Calm 2.0 mph3.2 kmh 29.93 in1013.5 mb 0.00 in0.0 mm 0.00 in0.0 mm 0.14 in3.6 mm
09:10 PM 71.8°F22.1°C 64.6°F18.1°C 78% 3.0 mph N4.8 kmh N 3.0 mph4.8 kmh 29.93 in1013.5 mb 0.00 in0.0 mm 0.00 in0.0 mm 0.14 in3.6 mm
09:15 PM 71.6°F22.0°C 64.4°F18.0°C 78% 3.0 mph N4.8 kmh N 3.0 mph4.8 kmh 29.93 in1013.5 mb 0.00 in0.0 mm 0.00 in0.0 mm 0.14 in3.6 mm
09:20 PM 71.3°F21.8°C 64.8°F18.2°C 80% 1.0 mph N1.6 kmh N 3.0 mph4.8 kmh 29.92 in1013.2 mb 0.00 in0.0 mm 0.00 in0.0 mm 0.14 in3.6 mm
09:25 PM 71.1°F21.7°C 64.6°F18.1°C 80% Calm Calm 3.0 mph4.8 kmh 29.92 in1013.2 mb 0.00 in0.0 mm 0.00 in0.0 mm 0.14 in3.6 mm
09:30 PM 70.8°F21.6°C 64.7°F18.2°C 81% 2.0 mph N3.2 kmh N 3.0 mph4.8 kmh 29.93 in1013.5 mb 0.00 in0.0 mm 0.00 in0.0 mm 0.14 in3.6 mm
09:35 PM 70.5°F21.4°C 64.4°F18.0°C 81% 1.0 mph N1.6 kmh N 3.0 mph4.8 kmh 29.93 in1013.5 mb 0.00 in0.0 mm 0.00 in0.0 mm 0.14 in3.6 mm
09:40 PM 70.2°F21.2°C 64.1°F17.8°C 81% Calm Calm 3.0 mph4.8 kmh 29.93 in1013.5 mb 0.00 in0.0 mm 0.00 in0.0 mm 0.14 in3.6 mm
09:45 PM 70.0°F21.1°C 63.9°F17.7°C 81% 1.0 mph N1.6 kmh N 2.0 mph3.2 kmh 29.93 in1013.5 mb 0.00 in0.0 mm 0.00 in0.0 mm 0.14 in3.6 mm
09:50 PM 69.8°F21.0°C 63.7°F17.6°C 81% Calm Calm 2.0 mph3.2 kmh 29.93 in1013.5 mb 0.00 in0.0 mm 0.00 in0.0 mm 0.14 in3.6 mm
09:55 PM 69.5°F20.8°C 63.4°F17.4°C 81% Calm Calm 2.0 mph3.2 kmh 29.93 in1013.5 mb 0.00 in0.0 mm 0.00 in0.0 mm 0.14 in3.6 mm
10:00 PM 69.3°F20.7°C 63.2°F17.3°C 81% Calm Calm -- 29.94 in1013.9 mb 0.00 in0.0 mm 0.00 in0.0 mm 0.14 in3.6 mm
10:05 PM 68.9°F20.5°C 63.2°F17.3°C 82% Calm Calm 2.0 mph3.2 kmh 29.95 in1014.2 mb 0.00 in0.0 mm 0.00 in0.0 mm 0.14 in3.6 mm
10:10 PM 68.7°F20.4°C 63.3°F17.4°C 83% Calm Calm 2.0 mph3.2 kmh 29.96 in1014.6 mb 0.00 in0.0 mm 0.00 in0.0 mm 0.14 in3.6 mm
10:15 PM 68.4°F20.2°C 63.4°F17.4°C 84% Calm Calm -- 29.96 in1014.6 mb 0.00 in0.0 mm 0.00 in0.0 mm 0.14 in3.6 mm
10:20 PM 68.2°F20.1°C 63.2°F17.3°C 84% Calm Calm -- 29.96 in1014.6 mb 0.00 in0.0 mm 0.00 in0.0 mm 0.14 in3.6 mm
10:25 PM 68.0°F20.0°C 63.3°F17.4°C 85% Calm Calm -- 29.96 in1014.6 mb 0.00 in0.0 mm 0.00 in0.0 mm 0.14 in3.6 mm
10:30 PM 67.8°F19.9°C 63.1°F17.3°C 85% Calm Calm -- 29.96 in1014.6 mb 0.00 in0.0 mm 0.00 in0.0 mm 0.14 in3.6 mm
10:35 PM 67.5°F19.7°C 63.2°F17.3°C 86% Calm Calm -- 29.97 in1014.9 mb 0.00 in0.0 mm 0.00 in0.0 mm 0.14 in3.6 mm
10:40 PM 67.3°F19.6°C 63.0°F17.2°C 86% Calm Calm -- 29.97 in1014.9 mb 0.00 in0.0 mm 0.00 in0.0 mm 0.14 in3.6 mm
10:45 PM 67.1°F19.5°C 63.1°F17.3°C 87% Calm Calm -- 29.97 in1014.9 mb 0.00 in0.0 mm 0.00 in0.0 mm 0.14 in3.6 mm
10:50 PM 66.9°F19.4°C 62.9°F17.2°C 87% Calm Calm -- 29.97 in1014.9 mb 0.00 in0.0 mm 0.00 in0.0 mm 0.14 in3.6 mm
10:55 PM 66.8°F19.3°C 63.1°F17.3°C 88% Calm Calm -- 29.97 in1014.9 mb 0.00 in0.0 mm 0.00 in0.0 mm 0.14 in3.6 mm
11:00 PM 66.7°F19.3°C 63.0°F17.2°C 88% Calm Calm -- 29.97 in1014.9 mb 0.00 in0.0 mm 0.00 in0.0 mm 0.14 in3.6 mm
11:05 PM 66.7°F19.3°C 63.4°F17.4°C 89% Calm Calm -- 29.97 in1014.9 mb 0.00 in0.0 mm 0.00 in0.0 mm 0.14 in3.6 mm
11:10 PM 66.7°F19.3°C 63.4°F17.4°C 89% Calm Calm -- 29.97 in1014.9 mb 0.00 in0.0 mm 0.00 in0.0 mm 0.14 in3.6 mm
11:15 PM 66.7°F19.3°C 63.0°F17.2°C 88% Calm Calm -- 29.97 in1014.9 mb 0.00 in0.0 mm 0.00 in0.0 mm 0.14 in3.6 mm
11:20 PM 66.6°F19.2°C 62.9°F17.2°C 88% Calm Calm -- 29.97 in1014.9 mb 0.00 in0.0 mm 0.00 in0.0 mm 0.14 in3.6 mm
11:25 PM 66.6°F19.2°C 62.9°F17.2°C 88% Calm Calm -- 29.97 in1014.9 mb 0.00 in0.0 mm 0.00 in0.0 mm 0.14 in3.6 mm
11:30 PM 66.5°F19.2°C 62.5°F16.9°C 87% Calm Calm -- 29.97 in1014.9 mb 0.00 in0.0 mm 0.00 in0.0 mm 0.14 in3.6 mm
11:35 PM 66.5°F19.2°C 62.5°F16.9°C 87% Calm Calm -- 29.97 in1014.9 mb 0.00 in0.0 mm 0.00 in0.0 mm 0.14 in3.6 mm
11:40 PM 66.3°F19.1°C 62.3°F16.8°C 87% Calm Calm -- 29.97 in1014.9 mb 0.00 in0.0 mm 0.00 in0.0 mm 0.14 in3.6 mm
11:45 PM 66.3°F19.1°C 62.3°F16.8°C 87% Calm Calm -- 29.97 in1014.9 mb 0.00 in0.0 mm 0.00 in0.0 mm 0.14 in3.6 mm
11:50 PM 66.2°F19.0°C 62.2°F16.8°C 87% Calm Calm -- 29.97 in1014.9 mb 0.00 in0.0 mm 0.00 in0.0 mm 0.14 in3.6 mm
11:55 PM 66.1°F18.9°C 62.1°F16.7°C 87% Calm Calm -- 29.98 in1015.2 mb 0.00 in0.0 mm 0.00 in0.0 mm 0.14 in3.6 mm